Time;durP1;ratioP1;P1;durP2;ratioP2;P2;SDS_P1;SDS_P2;PMS_P1;PMS_P2;Temp;Humidity;BMP_temperature;BMP_pressure;BME280_temperature;BME280_humidity;BME280_pressure;Samples;Min_cycle;Max_cycle;Signal;HPM_P1;HPM_P2
2023/10/02 00:00:39;;;;;;;15.13;8.93;;;;;;;;;;5036888;28;20421;-82
2023/10/02 00:03:05;;;;;;;15.43;8.63;;;;;;;;;;5040391;28;20381;-81
2023/10/02 00:08:31;;;;;;;17.63;9.63;;;;;;;;;;5036053;28;20385;-81
2023/10/02 00:11:05;;;;;;;18.83;8.73;;;;;;;;;;5036829;28;20411;-82
2023/10/02 00:13:31;;;;;;;16.47;9.20;;;;;;;;;;5020174;28;20429;-81
2023/10/02 00:15:58;;;;;;;16.27;8.90;;;;;;;;;;5034415;28;20903;-81
2023/10/02 00:18:27;;;;;;;19.47;8.67;;;;;;;;;;5018140;28;20456;-81
2023/10/02 00:21:17;;;;;;;15.67;9.70;;;;;;;;;;5034704;28;20425;-81
2023/10/02 00:23:59;;;;;;;17.43;10.23;;;;;;;;;;5034583;28;20515;-81
2023/10/02 00:26:24;;;;;;;17.20;8.70;;;;;;;;;;5035083;28;20468;-81
2023/10/02 00:28:50;;;;;;;15.47;9.10;;;14.90;99.90;;;;;;5035874;28;20384;-81
2023/10/02 00:31:32;;;;;;;16.37;8.87;;;14.70;99.90;;;;;;5018181;28;20435;-81
2023/10/02 00:33:59;;;;;;;16.53;9.87;;;14.70;99.90;;;;;;5020622;28;20285;-81
2023/10/02 00:36:25;;;;;;;19.77;9.03;;;14.90;99.90;;;;;;5035058;28;20417;-81
2023/10/02 00:38:51;;;;;;;17.40;9.00;;;14.70;99.90;;;;;;5002081;28;20932;-81
2023/10/02 00:41:16;;;;;;;17.40;10.33;;;14.70;99.90;;;;;;5001472;28;20259;-81
2023/10/02 00:43:45;;;;;;;20.57;9.93;;;14.70;99.90;;;;;;5002430;28;20578;-81
2023/10/02 00:46:23;;;;;;;16.23;9.53;;;14.70;99.90;;;;;;5034516;28;20681;-81
2023/10/02 00:48:50;;;;;;;17.93;9.47;;;14.70;99.90;;;;;;5019879;28;20417;-81
2023/10/02 00:51:15;;;;;;;19.87;9.77;;;14.70;99.90;;;;;;5034450;28;20429;-81
2023/10/02 00:53:48;;;;;;;18.17;9.47;;;14.70;99.90;;;;;;5034013;28;20963;-81
2023/10/02 00:56:23;;;;;;;15.33;9.03;;;15.00;99.90;;;;;;5034349;28;20206;-82
2023/10/02 00:58:55;;;;;;;16.00;8.13;;;14.70;99.90;;;;;;5034134;28;20783;-82
2023/10/02 01:01:22;;;;;;;16.57;10.00;;;14.70;99.90;;;;;;5018204;28;20423;-82
2023/10/02 01:06:54;;;;;;;18.27;10.23;;;14.70;99.90;;;;;;5034449;28;20456;-81
2023/10/02 01:09:19;;;;;;;18.43;10.23;;;14.70;99.90;;;;;;5034478;28;20429;-82
2023/10/02 01:11:45;;;;;;;17.67;9.70;;;14.60;99.90;;;;;;5050755;28;20936;-82
2023/10/02 01:14:11;;;;;;;16.30;8.90;;;14.70;99.90;;;;;;5033556;28;20413;-82
2023/10/02 01:16:47;;;;;;;18.17;9.57;;;14.70;99.90;;;;;;5033530;28;20528;-82
2023/10/02 01:19:13;;;;;;;15.57;8.63;;;14.70;99.90;;;;;;5018376;28;20533;-82
2023/10/02 01:21:40;;;;;;;17.90;9.20;;;14.70;99.90;;;;;;5032903;28;20425;-81
2023/10/02 01:24:10;;;;;;;14.63;8.30;;;14.60;99.90;;;;;;5017118;28;20475;-82
2023/10/02 01:26:41;;;;;;;17.80;9.97;;;14.60;99.90;;;;;;5033191;28;20874;-82
2023/10/02 01:29:10;;;;;;;20.83;10.40;;;14.60;99.90;;;;;;5032904;28;20964;-82
2023/10/02 01:31:48;;;;;;;14.60;9.10;;;14.60;99.90;;;;;;5017033;28;20427;-82
2023/10/02 01:40:28;;;;;;;17.07;9.53;;;14.40;99.90;;;;;;5019655;28;20440;-81
2023/10/02 01:42:43;;;;;;;20.87;8.40;;;14.40;99.90;;;;;;5032837;28;20471;-81
2023/10/02 01:45:09;;;;;;;17.90;8.60;;;14.40;99.90;;;;;;5016733;28;20777;-82
2023/10/02 01:47:41;;;;;;;18.63;9.10;;;14.30;99.90;;;;;;5016872;28;20515;-81
2023/10/02 01:50:06;;;;;;;17.70;9.83;;;14.30;99.90;;;;;;5012672;28;20194;-82
2023/10/02 01:52:32;;;;;;;15.03;8.80;;;14.30;99.90;;;;;;4997362;28;20426;-81
2023/10/02 01:54:58;;;;;;;17.37;9.87;;;14.30;99.90;;;;;;4996986;28;20206;-82
2023/10/02 01:57:24;;;;;;;14.60;9.97;;;14.30;99.90;;;;;;5013100;28;20247;-82
2023/10/02 01:59:50;;;;;;;18.77;9.67;;;14.30;99.90;;;;;;4997182;28;20934;-81
2023/10/02 02:02:15;;;;;;;14.37;8.67;;;14.30;99.90;;;;;;5013320;28;20429;-81
2023/10/02 02:04:43;;;;;;;18.37;9.97;;;14.30;99.90;;;;;;4997046;28;20194;-81
2023/10/02 02:07:08;;;;;;;21.87;10.27;;;14.30;99.90;;;;;;5013541;28;20189;-81
2023/10/02 02:09:43;;;;;;;18.00;9.77;;;14.20;99.90;;;;;;5013622;28;20770;-82
2023/10/02 02:12:10;;;;;;;19.53;9.33;;;14.20;99.90;;;;;;5013606;28;20675;-81
2023/10/02 02:14:49;;;;;;;17.30;9.60;;;14.20;99.90;;;;;;5033412;28;20465;-81
2023/10/02 02:17:23;;;;;;;16.00;9.47;;;14.20;99.90;;;;;;5021826;28;20429;-81
2023/10/02 02:19:49;;;;;;;15.40;8.70;;;14.10;99.90;;;;;;4998530;28;20430;-81
2023/10/02 02:22:23;;;;;;;20.93;10.60;;;14.10;99.90;;;;;;5018092;28;20757;-81
2023/10/02 02:24:49;;;;;;;22.63;9.67;;;14.10;99.90;;;;;;5034255;28;20415;-81
2023/10/02 02:27:19;;;;;;;19.60;11.40;;;14.00;99.90;;;;;;5033640;28;20429;-82
2023/10/02 02:29:46;;;;;;;19.73;9.63;;;14.00;99.90;;;;;;5033983;28;20412;-81
2023/10/02 02:32:12;;;;;;;18.90;10.53;;;14.00;99.90;;;;;;5033074;28;20415;-81
2023/10/02 02:34:38;;;;;;;18.80;9.50;;;14.00;99.90;;;;;;5016920;28;20518;-81
2023/10/02 02:37:06;;;;;;;17.40;9.37;;;14.00;99.90;;;;;;5019021;28;20426;-82
2023/10/02 02:39:33;;;;;;;17.63;8.97;;;14.00;99.90;;;;;;4998357;28;20195;-82
2023/10/02 02:44:46;;;;;;;19.83;9.20;;;13.90;99.90;;;;;;5018335;28;20453;-81
2023/10/02 02:47:15;;;;;;;17.80;9.30;;;13.90;99.90;;;;;;5016148;28;20470;-82
2023/10/02 02:49:49;;;;;;;22.13;10.10;;;13.90;99.90;;;;;;5016933;28;20422;-82
2023/10/02 02:52:32;;;;;;;15.87;9.37;;;13.90;99.90;;;;;;5016529;28;20932;-81
2023/10/02 02:55:03;;;;;;;19.93;10.10;;;13.80;99.90;;;;;;5016951;28;20514;-81
2023/10/02 02:57:32;;;;;;;16.97;9.27;;;13.80;99.90;;;;;;5016706;28;20787;-82
2023/10/02 03:02:52;;;;;;;17.30;8.80;;;13.80;99.90;;;;;;5032667;28;20447;-81
2023/10/02 03:05:22;;;;;;;19.40;9.37;;;13.80;99.90;;;;;;5036079;28;20449;-82
2023/10/02 03:07:56;;;;;;;20.23;9.33;;;13.80;99.90;;;;;;5036124;28;20773;-81
2023/10/02 03:10:23;;;;;;;16.67;9.67;;;13.80;99.90;;;;;;5037477;28;21002;-82
2023/10/02 03:12:51;;;;;;;19.43;9.80;;;13.80;99.90;;;;;;5019813;28;20421;-81
2023/10/02 03:18:22;;;;;;;18.17;9.87;;;13.80;99.90;;;;;;5017266;28;20437;-81
2023/10/02 03:20:54;;;;;;;19.07;11.00;;;13.80;99.90;;;;;;5025442;28;20425;-82
2023/10/02 03:23:20;;;;;;;15.93;10.20;;;13.90;99.90;;;;;;5036862;28;20405;-82
2023/10/02 03:25:47;;;;;;;19.23;10.30;;;13.90;99.90;;;;;;5020700;28;20443;-81
2023/10/02 03:28:16;;;;;;;17.50;9.70;;;13.90;99.90;;;;;;5035675;28;20182;-82
2023/10/02 03:30:47;;;;;;;19.30;10.87;;;13.90;99.90;;;;;;5036477;28;20504;-82
2023/10/02 03:33:20;;;;;;;18.23;10.17;;;14.00;99.90;;;;;;5036575;28;20405;-82
2023/10/02 03:35:58;;;;;;;18.80;10.97;;;14.00;99.90;;;;;;5035474;28;20472;-81
2023/10/02 03:38:33;;;;;;;18.03;10.13;;;14.10;99.90;;;;;;5035282;28;20425;-82
2023/10/02 03:41:01;;;;;;;19.00;10.30;;;14.10;99.90;;;;;;5035414;28;20420;-81
2023/10/02 03:43:43;;;;;;;21.13;11.17;;;14.10;99.90;;;;;;5013588;28;20411;-81
2023/10/02 03:46:35;;;;;;;19.17;9.60;;;14.20;99.90;;;;;;5014466;28;20455;-82
2023/10/02 03:49:03;;;;;;;19.97;9.83;;;14.20;99.90;;;;;;5002381;28;20429;-82
2023/10/02 03:51:40;;;;;;;19.97;11.40;;;14.20;99.90;;;;;;4998561;28;20429;-82
2023/10/02 03:54:17;;;;;;;18.40;10.80;;;14.30;99.90;;;;;;5014999;28;20759;-82
2023/10/02 03:56:55;;;;;;;19.70;10.30;;;14.30;99.90;;;;;;5026349;28;20508;-81
2023/10/02 03:59:25;;;;;;;16.63;10.30;;;14.30;99.90;;;;;;5034198;28;20450;-82
2023/10/02 04:01:51;;;;;;;22.30;11.23;;;14.50;99.90;;;;;;5014833;28;20410;-82
2023/10/02 04:04:21;;;;;;;19.67;10.97;;;14.50;99.90;;;;;;5015247;28;20541;-82
2023/10/02 04:06:50;;;;;;;19.67;10.87;;;14.50;99.90;;;;;;4999110;28;20453;-81
2023/10/02 04:11:45;;;;;;;18.60;9.80;;;14.50;99.90;;;;;;5015904;28;20560;-82
2023/10/02 04:14:17;;;;;;;18.90;10.47;;;14.50;99.90;;;;;;5007751;28;20907;-82
2023/10/02 04:16:59;;;;;;;16.10;9.57;;;14.60;99.90;;;;;;5034498;28;20203;-82
2023/10/02 04:19:26;;;;;;;19.70;10.37;;;14.60;99.90;;;;;;5018515;28;20788;-82
2023/10/02 04:21:53;;;;;;;19.50;10.80;;;14.60;99.90;;;;;;5034175;28;20785;-82
2023/10/02 04:24:25;;;;;;;20.23;10.63;;;14.70;99.90;;;;;;5001468;28;20455;-82
2023/10/02 04:27:08;;;;;;;17.73;8.90;;;14.60;99.90;;;;;;5037973;28;20477;-82
2023/10/02 04:29:37;;;;;;;18.67;10.07;;;14.70;99.90;;;;;;5022247;28;20776;-82
2023/10/02 04:32:14;;;;;;;19.20;9.60;;;14.70;99.90;;;;;;5034834;28;20415;-82
2023/10/02 04:34:50;;;;;;;20.00;11.40;;;14.60;99.90;;;;;;5033999;28;20577;-82
2023/10/02 04:37:26;;;;;;;16.87;9.90;;;14.70;99.90;;;;;;5018280;28;20498;-82
2023/10/02 04:42:25;;;;;;;24.27;11.17;;;14.70;99.90;;;;;;5034659;28;20412;-82
2023/10/02 04:44:58;;;;;;;21.37;10.60;;;14.60;99.90;;;;;;5013947;28;20433;-82
2023/10/02 04:47:28;;;;;;;19.67;10.73;;;14.70;99.90;;;;;;4998053;28;20437;-82
2023/10/02 04:55:16;;;;;;;19.37;10.47;;;14.70;99.90;;;;;;5019326;28;20514;-82
2023/10/02 04:57:42;;;;;;;16.77;9.83;;;14.70;99.90;;;;;;5017088;28;20415;-82
2023/10/02 05:00:26;;;;;;;17.97;10.43;;;14.70;99.90;;;;;;5017044;28;20445;-82
2023/10/02 05:03:09;;;;;;;20.23;11.37;;;14.80;99.90;;;;;;5019318;28;20409;-82
2023/10/02 05:05:49;;;;;;;17.80;9.30;;;14.80;99.90;;;;;;5018784;28;20445;-82
2023/10/02 05:08:20;;;;;;;19.03;9.50;;;14.90;99.90;;;;;;5034199;28;20397;-82
2023/10/02 05:10:47;;;;;;;17.40;9.03;;;14.90;99.90;;;;;;5033296;28;20413;-83
2023/10/02 05:13:14;;;;;;;20.77;10.30;;;14.90;99.90;;;;;;5032719;28;20423;-82
2023/10/02 05:16:06;;;;;;;24.47;11.07;;;14.90;99.90;;;;;;5016615;28;20587;-82
2023/10/02 05:18:33;;;;;;;23.80;11.00;;;14.90;99.90;;;;;;5035726;28;20781;-82
2023/10/02 05:21:01;;;;;;;17.10;9.47;;;14.90;99.90;;;;;;4998280;28;20851;-82
2023/10/02 05:23:28;;;;;;;22.97;10.23;;;14.90;99.90;;;;;;5012920;28;20426;-82
2023/10/02 05:25:54;;;;;;;17.80;10.80;;;14.90;99.90;;;;;;5013371;28;20766;-82
2023/10/02 05:28:20;;;;;;;19.27;9.67;;;15.00;99.90;;;;;;5013251;28;20413;-82
2023/10/02 05:30:46;;;;;;;20.70;10.60;;;15.10;99.90;;;;;;5012962;28;20411;-82
2023/10/02 05:33:16;;;;;;;16.20;9.77;;;15.00;99.90;;;;;;5012832;28;20245;-82
2023/10/02 05:35:45;;;;;;;18.73;9.77;;;15.10;99.90;;;;;;5028989;28;20202;-82
2023/10/02 05:38:16;;;;;;;19.43;10.93;;;15.10;99.90;;;;;;5012713;28;20400;-81
2023/10/02 05:40:47;;;;;;;20.30;10.80;;;15.10;99.90;;;;;;5012994;28;20418;-82
2023/10/02 05:43:21;;;;;;;21.80;10.70;;;15.00;99.90;;;;;;5014870;28;20865;-82
2023/10/02 05:48:38;;;;;;;21.83;11.27;;;15.00;99.90;;;;;;5032485;28;20495;-82
2023/10/02 05:51:09;;;;;;;18.10;10.10;;;15.00;99.90;;;;;;5033765;28;20497;-82
2023/10/02 05:53:37;;;;;;;23.60;10.73;;;15.00;99.90;;;;;;5033313;28;20412;-82
2023/10/02 05:56:12;;;;;;;20.57;10.37;;;14.90;99.90;;;;;;5032327;28;20483;-82
2023/10/02 05:58:42;;;;;;;18.80;9.43;;;14.90;99.90;;;;;;5032643;28;20399;-82
2023/10/02 06:01:26;;;;;;;16.63;10.20;;;15.00;99.90;;;;;;5032549;28;20440;-82
2023/10/02 06:04:00;;;;;;;18.57;10.10;;;14.90;99.90;;;;;;5034370;28;20405;-82
2023/10/02 06:06:27;;;;;;;18.43;10.20;;;14.90;99.90;;;;;;5018251;28;20400;-82
2023/10/02 06:08:55;;;;;;;20.70;10.23;;;14.90;99.90;;;;;;5035494;28;20405;-82
2023/10/02 06:11:31;;;;;;;21.13;10.23;;;15.00;99.90;;;;;;5033986;28;20495;-82
2023/10/02 06:14:09;;;;;;;19.03;10.70;;;15.00;99.90;;;;;;5033147;28;20414;-82
2023/10/02 06:16:35;;;;;;;20.40;11.67;;;15.00;99.90;;;;;;5033483;28;20924;-82
2023/10/02 06:19:01;;;;;;;15.47;8.97;;;15.00;99.90;;;;;;5019984;28;20786;-81
2023/10/02 06:21:31;;;;;;;21.93;10.97;;;15.00;99.90;;;;;;5019781;28;20425;-81
2023/10/02 06:24:00;;;;;;;23.37;10.60;;;15.10;99.90;;;;;;5036506;28;20645;-81
2023/10/02 06:26:46;;;;;;;16.30;9.57;;;15.10;99.90;;;;;;5018927;28;20451;-81
2023/10/02 06:29:22;;;;;;;21.03;10.83;;;15.20;99.90;;;;;;5003153;28;20408;-81
2023/10/02 06:31:51;;;;;;;18.43;10.40;;;15.20;99.90;;;;;;5016156;28;20405;-81
2023/10/02 06:34:20;;;;;;;17.33;10.30;;;15.30;99.90;;;;;;5016186;28;20425;-81
2023/10/02 06:36:48;;;;;;;21.57;11.30;;;15.40;99.90;;;;;;5016342;28;20430;-81
2023/10/02 06:39:17;;;;;;;17.10;9.20;;;15.40;99.90;;;;;;5021844;28;20439;-80
2023/10/02 06:41:43;;;;;;;28.73;11.83;;;15.50;99.90;;;;;;5018772;28;20433;-83
2023/10/02 06:44:15;;;;;;;20.20;10.10;;;15.60;99.90;;;;;;5017278;28;20424;-83
2023/10/02 06:46:55;;;;;;;18.60;10.80;;;15.60;99.90;;;;;;5015857;28;20465;-83
2023/10/02 06:49:21;;;;;;;22.23;11.53;;;15.80;99.90;;;;;;5031905;28;20413;-82
2023/10/02 06:51:49;;;;;;;21.77;11.43;;;15.90;99.90;;;;;;5019749;28;20445;-84
2023/10/02 06:54:18;;;;;;;20.30;10.93;;;16.00;99.90;;;;;;5017678;28;20372;-84
2023/10/02 06:56:44;;;;;;;19.90;11.47;;;16.10;99.90;;;;;;5028706;28;20459;-84
2023/10/02 06:59:09;;;;;;;25.63;11.60;;;16.20;99.90;;;;;;5039575;28;20425;-84
2023/10/02 07:01:35;;;;;;;19.07;10.03;;;16.30;99.90;;;;;;5037636;28;20516;-84
2023/10/02 07:04:09;;;;;;;18.87;10.40;;;16.30;99.90;;;;;;5038778;28;20676;-83
2023/10/02 07:06:38;;;;;;;20.43;11.03;;;16.40;99.90;;;;;;4995288;28;20442;-83
2023/10/02 07:09:10;;;;;;;21.13;12.07;;;16.50;99.90;;;;;;5017631;28;20945;-84
2023/10/02 07:11:39;;;;;;;19.43;10.20;;;16.60;99.90;;;;;;5018027;28;20455;-84
2023/10/02 07:14:06;;;;;;;19.83;9.97;;;16.60;99.90;;;;;;5016852;28;20516;-84
2023/10/02 07:16:35;;;;;;;23.10;10.77;;;16.70;99.90;;;;;;5019043;28;21000;-85
2023/10/02 07:19:01;;;;;;;21.90;12.00;;;16.80;99.90;;;;;;4984472;28;20758;-85
2023/10/02 07:21:30;;;;;;;19.00;11.00;;;16.80;99.90;;;;;;5034229;28;20415;-86
2023/10/02 07:23:58;;;;;;;23.30;11.60;;;16.90;99.90;;;;;;5035669;28;20938;-86
2023/10/02 07:29:08;;;;;;;22.27;11.37;;;17.00;99.90;;;;;;5036500;28;20775;-86
2023/10/02 07:31:34;;;;;;;23.03;12.13;;;17.10;99.90;;;;;;5035189;28;20792;-86
2023/10/02 07:34:01;;;;;;;23.40;12.00;;;17.20;99.90;;;;;;5018763;28;20860;-87
2023/10/02 07:36:26;;;;;;;21.17;11.30;;;17.30;99.90;;;;;;5036205;28;20488;-87
2023/10/02 07:38:53;;;;;;;21.03;10.90;;;17.40;99.90;;;;;;5035808;28;20403;-87
2023/10/02 07:41:27;;;;;;;23.53;11.20;;;17.50;99.90;;;;;;5036558;28;20407;-85
2023/10/02 07:44:07;;;;;;;20.33;10.83;;;17.60;99.90;;;;;;5034975;28;20441;-85
2023/10/02 07:46:33;;;;;;;21.90;10.90;;;17.80;99.90;;;;;;5050917;28;20818;-85
2023/10/02 07:49:00;;;;;;;23.57;11.70;;;17.90;99.90;;;;;;5035502;28;20495;-85
2023/10/02 07:51:36;;;;;;;20.53;10.90;;;18.10;99.90;;;;;;5034602;28;20461;-85
2023/10/02 07:54:02;;;;;;;18.43;10.13;;;18.20;99.90;;;;;;5051404;28;20420;-85
2023/10/02 07:56:29;;;;;;;18.27;10.67;;;18.20;99.90;;;;;;5036040;28;20460;-85
2023/10/02 07:58:55;;;;;;;18.93;10.40;;;18.30;99.90;;;;;;5035343;28;20417;-85
2023/10/02 08:01:27;;;;;;;20.30;10.53;;;18.40;99.90;;;;;;5034795;28;20412;-84
2023/10/02 08:03:55;;;;;;;23.63;11.47;;;18.50;99.90;;;;;;5036063;28;20864;-86
2023/10/02 08:11:50;;;;;;;20.40;11.07;;;18.80;99.90;;;;;;5034578;28;20447;-86
2023/10/02 08:14:38;;;;;;;21.63;11.00;;;19.00;99.90;;;;;;5050909;28;20403;-85
2023/10/02 08:17:17;;;;;;;17.57;10.73;;;19.10;99.90;;;;;;5021388;28;20425;-85
2023/10/02 08:19:54;;;;;;;20.67;10.63;;;19.20;99.90;;;;;;5034032;28;20395;-85
2023/10/02 08:22:23;;;;;;;25.43;11.50;;;19.30;99.90;;;;;;5004852;28;20821;-85
2023/10/02 08:24:52;;;;;;;20.60;10.40;;;19.50;99.90;;;;;;5035012;28;20512;-85
2023/10/02 08:27:18;;;;;;;20.53;10.63;;;19.70;99.90;;;;;;5034139;28;20391;-85
2023/10/02 08:29:44;;;;;;;20.60;11.07;;;19.70;99.90;;;;;;5035100;28;20475;-84
2023/10/02 08:32:10;;;;;;;20.03;10.70;;;19.80;99.90;;;;;;5017625;28;20909;-85
2023/10/02 08:34:36;;;;;;;18.87;10.67;;;20.00;99.90;;;;;;5033244;28;20435;-85
2023/10/02 08:37:05;;;;;;;17.40;11.30;;;20.00;99.90;;;;;;5033965;28;20421;-84
2023/10/02 08:39:38;;;;;;;18.10;9.70;;;20.10;99.90;;;;;;5034390;28;20441;-84
2023/10/02 08:42:09;;;;;;;17.13;10.23;;;20.20;99.90;;;;;;5035187;28;20402;-85
2023/10/02 08:44:38;;;;;;;17.57;10.53;;;20.30;99.90;;;;;;5035109;28;20519;-86
2023/10/02 08:47:06;;;;;;;19.00;10.97;;;20.50;99.90;;;;;;5033548;28;20875;-85
2023/10/02 08:49:36;;;;;;;17.23;9.83;;;20.60;99.90;;;;;;5033237;28;20421;-84
2023/10/02 08:52:06;;;;;;;25.20;11.70;;;21.10;99.90;;;;;;5039367;28;20489;-85
2023/10/02 08:54:32;;;;;;;19.83;10.23;;;21.20;99.90;;;;;;5045059;28;20448;-84
2023/10/02 08:57:08;;;;;;;17.60;11.17;;;21.60;99.90;;;;;;5039110;28;20823;-82
2023/10/02 08:59:41;;;;;;;20.37;11.03;;;21.70;99.90;;;;;;5038481;28;20223;-82
2023/10/02 09:02:17;;;;;;;17.73;10.83;;;21.80;99.90;;;;;;5016706;28;20430;-83
2023/10/02 09:04:55;;;;;;;19.03;11.53;;;22.30;99.90;;;;;;5032050;28;20429;-83
2023/10/02 09:10:24;;;;;;;20.23;10.20;;;22.70;99.90;;;;;;5030486;28;20463;-84
2023/10/02 09:13:09;;;;;;;16.20;10.53;;;22.70;99.90;;;;;;5035485;28;20428;-86
2023/10/02 09:15:35;;;;;;;20.43;10.63;;;23.30;99.90;;;;;;5036461;28;20527;-85
2023/10/02 09:18:19;;;;;;;20.13;11.20;;;23.40;99.90;;;;;;5036413;28;20425;-86
2023/10/02 09:21:13;;;;;;;21.10;11.37;;;23.40;99.90;;;;;;5035816;28;20182;-85
2023/10/02 09:23:51;;;;;;;18.43;10.50;;;23.60;99.90;;;;;;5036615;28;20452;-85
2023/10/02 09:26:16;;;;;;;18.00;11.20;;;24.30;99.90;;;;;;5036199;28;21006;-86
2023/10/02 09:28:58;;;;;;;14.93;10.20;;;24.50;99.90;;;;;;5019368;28;20416;-86
2023/10/02 09:31:33;;;;;;;21.67;11.00;;;24.50;99.90;;;;;;5021238;28;20272;-85
2023/10/02 09:34:10;;;;;;;22.67;12.37;;;24.70;99.90;;;;;;5036281;28;20396;-85
2023/10/02 09:36:47;;;;;;;24.57;11.77;;;25.20;99.90;;;;;;5034503;28;20466;-86
2023/10/02 09:39:32;;;;;;;21.53;11.53;;;25.30;99.90;;;;;;5034484;28;20431;-85
2023/10/02 09:42:06;;;;;;;14.23;9.93;;;25.30;99.90;;;;;;5032763;28;20437;-84
2023/10/02 09:44:48;;;;;;;19.47;11.70;;;25.50;99.90;;;;;;5029015;28;20451;-86
2023/10/02 09:47:20;;;;;;;23.57;11.80;;;25.70;99.90;;;;;;5015112;28;20531;-86
2023/10/02 09:50:10;;;;;;;31.23;11.70;;;25.20;99.90;;;;;;5028933;28;20846;-86
2023/10/02 09:52:47;;;;;;;21.73;11.97;;;25.20;99.90;;;;;;5035285;28;20429;-86
2023/10/02 09:55:25;;;;;;;21.17;11.37;;;25.90;99.90;;;;;;5035894;28;20468;-84
2023/10/02 09:57:54;;;;;;;22.30;12.47;;;26.40;99.90;;;;;;5035344;28;20393;-86
2023/10/02 10:00:36;;;;;;;15.90;11.33;;;26.50;99.90;;;;;;5035013;28;20497;-85
2023/10/02 10:03:23;;;;;;;18.13;10.40;;;26.60;99.90;;;;;;5024621;28;20419;-85
2023/10/02 10:06:19;;;;;;;17.13;10.30;;;26.90;99.90;;;;;;5035757;28;20409;-86
2023/10/02 10:14:42;;;;;;;20.57;10.90;;;27.80;99.90;;;;;;5034786;28;20484;-85
2023/10/02 10:17:17;;;;;;;15.23;10.23;;;27.80;99.90;;;;;;5017299;28;20418;-85
2023/10/02 10:20:09;;;;;;;15.37;10.83;;;28.10;99.90;;;;;;5034376;28;20209;-84
2023/10/02 10:22:39;;;;;;;14.70;9.97;;;28.00;99.90;;;;;;5011621;28;20445;-84
2023/10/02 10:25:32;;;;;;;18.67;11.13;;;28.30;99.90;;;;;;5014667;28;20417;-84
2023/10/02 10:28:05;;;;;;;15.00;10.53;;;29.00;99.90;;;;;;5021780;28;20849;-85
2023/10/02 10:30:38;;;;;;;20.70;11.50;;;29.10;99.90;;;;;;5033448;28;20417;-85
2023/10/02 10:33:15;;;;;;;16.03;10.77;;;29.00;99.90;;;;;;5049594;28;20436;-82
2023/10/02 10:35:51;;;;;;;20.20;11.50;;;28.60;99.90;;;;;;5033536;28;20487;-80
2023/10/02 10:38:26;;;;;;;19.03;11.30;;;28.40;99.90;;;;;;5031956;28;20432;-80
2023/10/02 10:41:35;;;;;;;18.00;10.70;;;28.10;99.90;;;;;;5032960;28;20519;-80
2023/10/02 10:44:06;;;;;;;16.80;10.90;;;28.10;99.90;;;;;;5032254;28;20483;-80
2023/10/02 10:46:32;;;;;;;16.70;10.53;;;28.30;99.90;;;;;;5032936;28;20833;-81
2023/10/02 10:49:07;;;;;;;17.90;11.70;;;27.80;99.90;;;;;;5031611;28;21002;-79
2023/10/02 10:51:43;;;;;;;22.70;10.53;;;28.00;99.90;;;;;;5033529;28;20453;-79
2023/10/02 10:54:12;;;;;;;21.37;11.50;;;28.10;99.90;;;;;;5032247;28;20503;-79
2023/10/02 10:56:44;;;;;;;18.97;11.80;;;28.30;99.90;;;;;;5048096;28;20820;-79
2023/10/02 10:59:22;;;;;;;17.93;9.93;;;28.20;99.90;;;;;;5048592;28;20515;-79
2023/10/02 11:04:34;;;;;;;17.50;11.07;;;28.10;99.90;;;;;;5037353;28;20392;-79
2023/10/02 11:07:00;;;;;;;16.47;10.80;;;28.40;99.90;;;;;;5036393;28;20500;-79
2023/10/02 11:09:25;;;;;;;18.33;10.10;;;28.60;99.90;;;;;;5035099;28;20563;-79
2023/10/02 11:11:53;;;;;;;14.60;9.57;;;28.80;99.90;;;;;;5018496;28;20221;-79
2023/10/02 11:14:34;;;;;;;12.37;9.80;;;29.00;99.90;;;;;;5041585;28;20653;-81
2023/10/02 11:17:04;;;;;;;15.97;10.63;;;29.10;99.90;;;;;;5036503;28;20499;-79
2023/10/02 11:22:18;;;;;;;12.40;8.70;;;29.40;99.90;;;;;;5036343;28;20901;-79
2023/10/02 11:25:21;;;;;;;16.43;10.97;;;29.20;99.90;;;;;;5035897;28;20814;-79
2023/10/02 11:27:58;;;;;;;16.50;9.90;;;29.80;99.90;;;;;;5035907;28;20408;-79
2023/10/02 11:30:34;;;;;;;16.83;10.60;;;29.60;99.90;;;;;;5034741;28;20392;-79
2023/10/02 11:33:04;;;;;;;24.97;10.60;;;29.90;99.90;;;;;;5034728;28;20471;-78
2023/10/02 11:35:37;;;;;;;18.83;10.70;;;29.90;99.90;;;;;;5018877;28;20496;-78
2023/10/02 11:38:07;;;;;;;13.57;9.40;;;30.20;99.90;;;;;;5036232;28;20437;-81
2023/10/02 11:40:35;;;;;;;13.37;9.80;;;30.50;99.90;;;;;;5035794;28;20419;-80
2023/10/02 11:43:01;;;;;;;16.53;11.07;;;30.60;99.90;;;;;;5034444;28;20451;-81
2023/10/02 11:45:32;;;;;;;17.87;9.50;;;30.60;99.90;;;;;;5035769;28;20490;-81
2023/10/02 11:47:58;;;;;;;22.20;9.97;;;30.80;99.90;;;;;;5018616;28;20670;-81
2023/10/02 11:50:24;;;;;;;16.23;9.87;;;30.80;99.90;;;;;;5035514;28;20416;-79
2023/10/02 11:52:51;;;;;;;16.33;10.07;;;30.80;99.90;;;;;;5034111;28;20788;-81
2023/10/02 11:55:18;;;;;;;15.83;10.87;;;30.50;99.90;;;;;;5034907;28;20726;-81
2023/10/02 11:57:51;;;;;;;13.37;9.43;;;30.80;99.90;;;;;;5013844;28;20572;-81
2023/10/02 12:00:20;;;;;;;17.80;10.30;;;31.10;99.90;;;;;;5015601;28;20766;-81
2023/10/02 12:02:49;;;;;;;13.67;9.93;;;30.80;99.90;;;;;;5014088;28;20414;-81
2023/10/02 12:05:17;;;;;;;15.40;10.87;;;30.80;99.90;;;;;;5021057;28;20487;-81
2023/10/02 12:07:44;;;;;;;15.60;10.20;;;31.10;99.90;;;;;;5033559;28;20780;-81
2023/10/02 12:10:15;;;;;;;16.07;10.13;;;31.20;99.90;;;;;;5034614;28;20429;-81
2023/10/02 12:12:42;;;;;;;15.90;10.67;;;31.30;99.90;;;;;;5033046;28;20405;-81
2023/10/02 12:15:13;;;;;;;15.20;9.90;;;31.30;99.90;;;;;;5033734;28;20479;-81
2023/10/02 12:17:39;;;;;;;13.93;9.80;;;31.10;99.90;;;;;;5034767;28;20398;-81
2023/10/02 12:20:10;;;;;;;16.83;9.97;;;31.30;99.90;;;;;;5033474;28;20431;-81
2023/10/02 12:22:36;;;;;;;15.23;10.17;;;31.50;99.90;;;;;;5034611;28;20193;-81
2023/10/02 12:25:04;;;;;;;13.73;9.73;;;31.40;99.90;;;;;;5017479;28;20486;-81
2023/10/02 12:27:30;;;;;;;16.00;10.00;;;31.40;99.90;;;;;;5034817;28;20828;-81
2023/10/02 12:29:58;;;;;;;16.50;10.33;;;31.60;99.90;;;;;;5034479;28;20897;-81
2023/10/02 12:32:24;;;;;;;13.77;9.00;;;31.80;99.90;;;;;;5033197;28;20932;-81
2023/10/02 12:34:50;;;;;;;16.30;9.17;;;31.70;99.90;;;;;;5034293;28;20469;-80
2023/10/02 12:37:18;;;;;;;17.90;11.10;;;31.50;99.90;;;;;;5018425;28;21033;-81
2023/10/02 12:39:44;;;;;;;15.93;9.97;;;31.60;99.90;;;;;;5012976;28;20190;-79
2023/10/02 12:42:10;;;;;;;16.67;11.07;;;31.90;99.90;;;;;;5013584;28;20445;-81
2023/10/02 12:44:40;;;;;;;18.33;10.90;;;31.80;99.90;;;;;;4980761;28;20508;-81
2023/10/02 12:47:09;;;;;;;15.13;10.00;;;31.80;99.90;;;;;;5013159;28;20287;-81
2023/10/02 12:49:38;;;;;;;15.00;9.43;;;32.00;99.90;;;;;;5013316;28;20425;-81
2023/10/02 12:52:05;;;;;;;14.57;10.40;;;31.90;99.90;;;;;;5013454;28;20417;-81
2023/10/02 12:54:31;;;;;;;16.00;9.77;;;32.20;99.90;;;;;;5013175;28;20421;-81
2023/10/02 12:56:56;;;;;;;14.77;10.17;;;31.80;99.90;;;;;;5013266;28;20484;-81
2023/10/02 12:59:23;;;;;;;15.30;10.53;;;32.00;99.90;;;;;;5013031;28;20418;-81
2023/10/02 13:01:50;;;;;;;15.10;10.87;;;32.20;99.90;;;;;;5013207;28;20206;-80
2023/10/02 13:04:15;;;;;;;13.60;10.10;;;32.50;99.90;;;;;;5029672;28;20938;-79
2023/10/02 13:06:45;;;;;;;14.77;9.37;;;32.50;99.90;;;;;;5013948;28;20441;-81
2023/10/02 13:09:14;;;;;;;15.50;10.63;;;32.80;99.90;;;;;;5016682;28;20175;-81
2023/10/02 13:11:40;;;;;;;16.27;10.17;;;32.70;99.90;;;;;;5032601;28;20417;-81
2023/10/02 13:14:09;;;;;;;18.47;11.70;;;32.90;99.90;;;;;;5032839;28;20472;-81
2023/10/02 13:16:38;;;;;;;15.60;11.20;;;32.70;99.90;;;;;;5016745;28;20508;-80
2023/10/02 13:19:09;;;;;;;14.37;10.57;;;32.70;99.90;;;;;;5034825;28;20417;-80
2023/10/02 13:21:38;;;;;;;17.50;10.73;;;32.60;99.90;;;;;;5017186;28;20508;-80
2023/10/02 13:24:13;;;;;;;18.20;12.13;;;32.70;99.90;;;;;;5033105;28;20425;-80
2023/10/02 13:26:39;;;;;;;14.53;11.27;;;32.80;99.90;;;;;;5032539;28;20901;-80
2023/10/02 13:29:05;;;;;;;16.70;10.80;;;32.90;99.90;;;;;;5032628;28;20507;-80
2023/10/02 13:31:31;;;;;;;16.47;10.73;;;33.40;99.90;;;;;;5033807;28;20174;-80
2023/10/02 13:33:57;;;;;;;20.63;12.10;;;33.50;99.90;;;;;;5032164;28;20433;-80
2023/10/02 13:36:24;;;;;;;17.63;11.57;;;32.90;99.90;;;;;;5048806;28;20535;-81
2023/10/02 13:38:57;;;;;;;14.73;10.93;;;32.80;99.90;;;;;;5033236;28;20190;-80
2023/10/02 13:41:24;;;;;;;16.43;10.90;;;32.60;99.90;;;;;;5012291;28;20495;-80
2023/10/02 13:43:53;;;;;;;16.63;11.33;;;32.40;99.90;;;;;;5013498;28;20464;-80
2023/10/02 13:46:21;;;;;;;18.17;11.10;;;32.50;99.90;;;;;;5012308;28;20505;-80
2023/10/02 13:48:52;;;;;;;16.50;11.40;;;32.60;99.90;;;;;;5012111;28;20429;-81